sensor_id;sensor_type;location;lat;lon;timestamp;temperature;humidity
20698;DHT22;10508;50.956;4.640;2023-09-12T12:14:34;29.40;99.90
20698;DHT22;10508;50.956;4.640;2023-09-12T12:17:10;29.60;99.90
20698;DHT22;10508;50.956;4.640;2023-09-12T12:19:37;29.30;99.90
20698;DHT22;10508;50.956;4.640;2023-09-12T12:22:06;29.10;99.90
20698;DHT22;10508;50.956;4.640;2023-09-12T12:24:40;29.20;99.90
20698;DHT22;10508;50.956;4.640;2023-09-12T12:27:06;29.00;99.90
20698;DHT22;10508;50.956;4.640;2023-09-12T12:29:34;29.30;99.90
20698;DHT22;10508;50.956;4.640;2023-09-12T12:32:03;29.70;99.90
20698;DHT22;10508;50.956;4.640;2023-09-12T12:34:30;29.80;99.90
20698;DHT22;10508;50.956;4.640;2023-09-12T12:36:57;29.50;99.90
20698;DHT22;10508;50.956;4.640;2023-09-12T12:39:23;29.60;99.90
20698;DHT22;10508;50.956;4.640;2023-09-12T12:41:51;29.40;99.90
20698;DHT22;10508;50.956;4.640;2023-09-12T12:44:18;29.80;99.90
20698;DHT22;10508;50.956;4.640;2023-09-12T12:46:51;30.10;99.90
20698;DHT22;10508;50.956;4.640;2023-09-12T12:49:21;30.30;99.90
20698;DHT22;10508;50.956;4.640;2023-09-12T12:51:48;30.40;99.90
20698;DHT22;10508;50.956;4.640;2023-09-12T12:54:14;30.40;99.90
20698;DHT22;10508;50.956;4.640;2023-09-12T12:56:40;30.40;99.90
20698;DHT22;10508;50.956;4.640;2023-09-12T12:59:07;30.30;99.90
20698;DHT22;10508;50.956;4.640;2023-09-12T13:01:38;29.90;99.90
20698;DHT22;10508;50.956;4.640;2023-09-12T13:04:05;29.60;99.90
20698;DHT22;10508;50.956;4.640;2023-09-12T13:06:32;29.40;99.90
20698;DHT22;10508;50.956;4.640;2023-09-12T13:09:01;29.00;99.90
20698;DHT22;10508;50.956;4.640;2023-09-12T13:13:56;28.50;99.90
20698;DHT22;10508;50.956;4.640;2023-09-12T13:16:22;28.60;99.90
20698;DHT22;10508;50.956;4.640;2023-09-12T13:18:48;28.70;99.90
20698;DHT22;10508;50.956;4.640;2023-09-12T13:21:13;28.50;99.90
20698;DHT22;10508;50.956;4.640;2023-09-12T13:23:39;28.30;99.90
20698;DHT22;10508;50.956;4.640;2023-09-12T13:26:07;28.30;99.90
20698;DHT22;10508;50.956;4.640;2023-09-12T13:28:33;28.30;99.90
20698;DHT22;10508;50.956;4.640;2023-09-12T13:38:17;27.90;99.90
20698;DHT22;10508;50.956;4.640;2023-09-12T13:40:45;27.90;99.90
20698;DHT22;10508;50.956;4.640;2023-09-12T13:45:38;27.60;99.90
20698;DHT22;10508;50.956;4.640;2023-09-12T13:48:05;27.60;99.90
20698;DHT22;10508;50.956;4.640;2023-09-12T13:50:31;27.50;99.90
20698;DHT22;10508;50.956;4.640;2023-09-12T13:52:58;27.40;99.90
20698;DHT22;10508;50.956;4.640;2023-09-12T13:55:33;27.30;99.90
20698;DHT22;10508;50.956;4.640;2023-09-12T13:58:01;27.30;99.90
20698;DHT22;10508;50.956;4.640;2023-09-12T14:00:26;27.20;99.90
20698;DHT22;10508;50.956;4.640;2023-09-12T14:02:52;27.30;99.90
20698;DHT22;10508;50.956;4.640;2023-09-12T14:05:17;27.20;99.90
20698;DHT22;10508;50.956;4.640;2023-09-12T14:07:43;27.20;99.90
20698;DHT22;10508;50.956;4.640;2023-09-12T14:10:09;27.20;99.90
20698;DHT22;10508;50.956;4.640;2023-09-12T14:12:35;27.20;99.90
20698;DHT22;10508;50.956;4.640;2023-09-12T14:15:01;27.00;99.90
20698;DHT22;10508;50.956;4.640;2023-09-12T14:17:28;27.00;99.90
20698;DHT22;10508;50.956;4.640;2023-09-12T14:19:55;26.90;99.90
20698;DHT22;10508;50.956;4.640;2023-09-12T14:22:21;26.80;99.90
20698;DHT22;10508;50.956;4.640;2023-09-12T14:24:49;26.80;99.90
20698;DHT22;10508;50.956;4.640;2023-09-12T14:27:15;26.70;99.90
20698;DHT22;10508;50.956;4.640;2023-09-12T14:29:40;26.60;99.90
20698;DHT22;10508;50.956;4.640;2023-09-12T14:32:11;26.60;99.90
20698;DHT22;10508;50.956;4.640;2023-09-12T14:34:36;26.60;99.90
20698;DHT22;10508;50.956;4.640;2023-09-12T14:37:02;26.50;99.90
20698;DHT22;10508;50.956;4.640;2023-09-12T14:39:28;26.40;99.90
20698;DHT22;10508;50.956;4.640;2023-09-12T14:41:53;26.30;99.90
20698;DHT22;10508;50.956;4.640;2023-09-12T14:44:21;26.30;99.90
20698;DHT22;10508;50.956;4.640;2023-09-12T14:46:47;26.20;99.90
20698;DHT22;10508;50.956;4.640;2023-09-12T14:56:32;26.00;99.90
20698;DHT22;10508;50.956;4.640;2023-09-12T14:58:59;26.00;99.90
20698;DHT22;10508;50.956;4.640;2023-09-12T15:01:25;26.00;99.90
20698;DHT22;10508;50.956;4.640;2023-09-12T15:06:18;25.90;99.90
20698;DHT22;10508;50.956;4.640;2023-09-12T15:08:44;26.00;99.90
20698;DHT22;10508;50.956;4.640;2023-09-12T15:11:10;26.00;99.90
20698;DHT22;10508;50.956;4.640;2023-09-12T15:23:21;25.70;99.90
20698;DHT22;10508;50.956;4.640;2023-09-12T15:25:49;25.70;99.90
20698;DHT22;10508;50.956;4.640;2023-09-12T15:33:07;25.50;99.90
20698;DHT22;10508;50.956;4.640;2023-09-12T15:37:59;25.40;99.90
20698;DHT22;10508;50.956;4.640;2023-09-12T15:40:26;25.40;99.90
20698;DHT22;10508;50.956;4.640;2023-09-12T15:42:52;25.30;99.90
20698;DHT22;10508;50.956;4.640;2023-09-12T15:45:18;25.30;99.90
20698;DHT22;10508;50.956;4.640;2023-09-12T15:47:46;25.20;99.90
20698;DHT22;10508;50.956;4.640;2023-09-12T15:50:11;25.20;99.90
20698;DHT22;10508;50.956;4.640;2023-09-12T15:52:38;25.20;99.90
20698;DHT22;10508;50.956;4.640;2023-09-12T15:55:08;25.20;99.90
20698;DHT22;10508;50.956;4.640;2023-09-12T15:57:35;25.10;99.90
20698;DHT22;10508;50.956;4.640;2023-09-12T16:00:04;25.10;99.90
20698;DHT22;10508;50.956;4.640;2023-09-12T16:02:32;25.00;99.90
20698;DHT22;10508;50.956;4.640;2023-09-12T16:04:59;25.00;99.90
20698;DHT22;10508;50.956;4.640;2023-09-12T16:07:25;24.90;99.90
20698;DHT22;10508;50.956;4.640;2023-09-12T16:09:50;24.90;99.90
20698;DHT22;10508;50.956;4.640;2023-09-12T16:12:16;24.80;99.90
20698;DHT22;10508;50.956;4.640;2023-09-12T16:14:42;24.70;99.90
20698;DHT22;10508;50.956;4.640;2023-09-12T16:19:34;24.40;99.90
20698;DHT22;10508;50.956;4.640;2023-09-12T16:22:00;24.50;99.90
20698;DHT22;10508;50.956;4.640;2023-09-12T16:24:25;24.50;99.90
20698;DHT22;10508;50.956;4.640;2023-09-12T16:26:51;24.40;99.90
20698;DHT22;10508;50.956;4.640;2023-09-12T16:29:18;24.40;99.90
20698;DHT22;10508;50.956;4.640;2023-09-12T16:31:44;24.40;99.90
20698;DHT22;10508;50.956;4.640;2023-09-12T16:34:10;24.30;99.90
20698;DHT22;10508;50.956;4.640;2023-09-12T16:36:35;24.40;99.90
20698;DHT22;10508;50.956;4.640;2023-09-12T16:39:01;24.40;99.90
20698;DHT22;10508;50.956;4.640;2023-09-12T16:41:27;24.40;99.90
20698;DHT22;10508;50.956;4.640;2023-09-12T16:43:52;24.30;99.90
20698;DHT22;10508;50.956;4.640;2023-09-12T16:46:18;24.20;99.90
20698;DHT22;10508;50.956;4.640;2023-09-12T16:48:44;24.10;99.90
20698;DHT22;10508;50.956;4.640;2023-09-12T16:51:10;24.10;99.90
20698;DHT22;10508;50.956;4.640;2023-09-12T16:53:35;24.10;99.90
20698;DHT22;10508;50.956;4.640;2023-09-12T16:58:27;23.80;99.90
20698;DHT22;10508;50.956;4.640;2023-09-12T17:00:53;23.70;99.90
20698;DHT22;10508;50.956;4.640;2023-09-12T17:03:19;23.70;99.90
20698;DHT22;10508;50.956;4.640;2023-09-12T17:05:45;23.70;99.90
20698;DHT22;10508;50.956;4.640;2023-09-12T17:08:11;23.60;99.90
20698;DHT22;10508;50.956;4.640;2023-09-12T17:10:37;23.60;99.90
20698;DHT22;10508;50.956;4.640;2023-09-12T17:13:03;23.60;99.90
20698;DHT22;10508;50.956;4.640;2023-09-12T17:15:29;23.60;99.90
20698;DHT22;10508;50.956;4.640;2023-09-12T17:17:54;23.60;99.90
